createdAt,value
2017-10-17T00:02:06.406Z,21.50
2017-10-17T00:04:37.398Z,22.30
2017-10-17T00:07:07.224Z,19.40
2017-10-17T00:09:37.250Z,19.83
2017-10-17T00:12:07.093Z,18.00
2017-10-17T00:14:37.193Z,19.83
2017-10-17T00:17:07.046Z,21.00
2017-10-17T00:19:36.962Z,20.20
2017-10-17T00:22:06.758Z,22.37
2017-10-17T00:24:36.569Z,19.80
2017-10-17T00:27:06.747Z,19.20
2017-10-17T00:29:36.561Z,19.93
2017-10-17T00:32:06.651Z,20.87
2017-10-17T00:34:36.483Z,19.63
2017-10-17T00:37:06.658Z,21.17
2017-10-17T00:39:36.481Z,21.50
2017-10-17T00:42:06.332Z,18.40
2017-10-17T00:44:36.173Z,18.73
2017-10-17T00:47:05.966Z,19.50
2017-10-17T00:49:35.858Z,18.77
2017-10-17T00:52:05.655Z,18.50
2017-10-17T00:54:35.847Z,18.80
2017-10-17T00:57:05.730Z,18.60
2017-10-17T00:59:36.401Z,19.10
2017-10-17T01:02:06.230Z,18.97
2017-10-17T01:04:36.342Z,17.90
2017-10-17T01:07:06.210Z,16.03
2017-10-17T01:09:36.298Z,17.73
2017-10-17T01:12:06.165Z,16.97
2017-10-17T01:21:25.253Z,16.83
2017-10-17T01:24:08.915Z,17.90
2017-10-17T01:26:38.762Z,17.90
2017-10-17T01:29:18.476Z,17.07
2017-10-17T01:31:48.770Z,17.63
2017-10-17T01:34:21.211Z,16.80
2017-10-17T01:36:51.090Z,17.20
2017-10-17T01:39:20.929Z,18.70
2017-10-17T01:41:50.770Z,18.37
2017-10-17T01:44:32.471Z,18.20
2017-10-17T01:47:02.277Z,18.73
2017-10-17T01:49:32.300Z,18.70
2017-10-17T01:52:17.970Z,18.00
2017-10-17T01:55:04.438Z,18.50
2017-10-17T01:57:37.005Z,17.80
2017-10-17T02:00:07.206Z,17.17
2017-10-17T02:02:38.844Z,17.50
2017-10-17T02:05:08.989Z,19.10
2017-10-17T02:07:38.826Z,17.40
2017-10-17T02:10:11.358Z,17.70
2017-10-17T02:12:41.189Z,19.07
2017-10-17T02:15:11.346Z,17.60
2017-10-17T02:17:41.698Z,18.90
2017-10-17T02:20:11.870Z,16.50
2017-10-17T02:22:41.704Z,17.57
2017-10-17T02:25:26.401Z,18.10
2017-10-17T02:27:56.231Z,18.10
2017-10-17T02:30:26.893Z,17.23
2017-10-17T02:32:56.716Z,15.80
2017-10-17T02:35:26.584Z,17.73
2017-10-17T02:37:56.750Z,16.70
2017-10-17T02:40:26.893Z,15.67
2017-10-17T02:42:57.012Z,16.40
2017-10-17T02:45:26.861Z,16.00
2017-10-17T02:47:56.660Z,16.10
2017-10-17T02:50:26.759Z,15.33
2017-10-17T02:52:56.585Z,16.00
2017-10-17T02:55:26.393Z,16.43
2017-10-17T02:57:56.483Z,17.30
2017-10-17T03:00:26.293Z,16.60
2017-10-17T03:02:57.288Z,17.00
2017-10-17T03:05:27.109Z,15.20
2017-10-17T03:07:57.230Z,16.80
2017-10-17T03:10:27.063Z,16.43
2017-10-17T03:12:56.893Z,17.00
2017-10-17T03:15:27.097Z,17.67
2017-10-17T03:17:59.770Z,16.23
2017-10-17T03:20:31.011Z,17.90
2017-10-17T03:23:16.496Z,17.50
2017-10-17T03:25:46.375Z,17.80
2017-10-17T03:28:18.875Z,17.40
2017-10-17T03:30:49.641Z,18.00
2017-10-17T03:33:19.814Z,17.03
2017-10-17T03:35:49.437Z,17.47
2017-10-17T03:38:33.965Z,19.73
2017-10-17T03:41:03.869Z,17.77
2017-10-17T03:46:23.457Z,17.83
2017-10-17T03:48:53.099Z,18.20
2017-10-17T03:51:22.714Z,19.47
2017-10-17T03:53:52.344Z,17.67
2017-10-17T03:56:24.656Z,18.30
2017-10-17T03:58:54.338Z,17.07
2017-10-17T04:01:35.674Z,17.10
2017-10-17T04:04:06.226Z,19.93
2017-10-17T04:06:52.678Z,18.43
2017-10-17T04:09:22.330Z,18.50
2017-10-17T04:11:51.953Z,18.37
2017-10-17T04:14:41.533Z,18.90
2017-10-17T04:17:17.018Z,19.83
2017-10-17T04:20:06.646Z,17.90
2017-10-17T04:22:42.003Z,18.17
2017-10-17T04:25:12.527Z,19.10
2017-10-17T04:27:57.025Z,18.93
2017-10-17T04:30:27.237Z,18.13
2017-10-17T04:33:11.730Z,17.47
2017-10-17T04:35:44.082Z,18.40
2017-10-17T04:38:13.703Z,18.90
2017-10-17T04:40:53.479Z,17.70
2017-10-17T04:43:29.002Z,16.80
2017-10-17T04:45:59.779Z,19.40
2017-10-17T04:48:49.221Z,17.87
2017-10-17T04:51:22.499Z,18.70
2017-10-17T04:53:55.650Z,19.20
2017-10-17T04:56:25.545Z,19.23
2017-10-17T04:59:11.765Z,18.93
2017-10-17T05:01:45.451Z,16.67
2017-10-17T05:04:20.979Z,17.30
2017-10-17T05:06:50.886Z,18.67
2017-10-17T05:09:27.098Z,16.83
2017-10-17T05:11:57.086Z,18.77
2017-10-17T05:14:31.349Z,19.00
2017-10-17T05:17:15.897Z,18.03
2017-10-17T05:20:00.370Z,18.53
2017-10-17T05:22:46.609Z,18.23
2017-10-17T05:25:16.248Z,16.10
2017-10-17T05:27:52.150Z,17.03
2017-10-17T05:30:22.685Z,17.50
2017-10-17T05:32:52.307Z,18.97
2017-10-17T05:35:21.912Z,17.07
2017-10-17T05:37:51.561Z,17.80
2017-10-17T05:40:21.203Z,19.33
2017-10-17T05:42:50.854Z,18.03
2017-10-17T05:45:20.468Z,19.07
2017-10-17T05:47:50.973Z,18.07
2017-10-17T05:50:25.237Z,18.80
2017-10-17T05:52:55.118Z,17.27
2017-10-17T05:55:24.752Z,20.60
2017-10-17T05:57:54.381Z,20.33
2017-10-17T06:00:24.038Z,18.90
2017-10-17T06:02:53.693Z,18.13
2017-10-17T06:05:23.630Z,17.27
2017-10-17T06:07:53.253Z,19.77
2017-10-17T06:10:22.890Z,18.07
2017-10-17T06:12:52.514Z,19.40
2017-10-17T06:15:22.129Z,16.80
2017-10-17T06:17:52.308Z,19.27
2017-10-17T06:20:22.189Z,18.40
2017-10-17T06:22:52.013Z,18.90
2017-10-17T06:25:21.846Z,21.87
2017-10-17T06:27:51.661Z,22.07
2017-10-17T06:30:22.221Z,21.63
2017-10-17T06:32:52.063Z,22.30
2017-10-17T06:35:22.220Z,18.37
2017-10-17T06:37:52.693Z,21.30
2017-10-17T06:40:22.620Z,21.40
2017-10-17T06:42:52.437Z,17.93
2017-10-17T06:45:22.626Z,19.63
2017-10-17T06:47:52.461Z,20.90
2017-10-17T06:50:22.645Z,22.83
2017-10-17T06:52:52.625Z,21.53
2017-10-17T06:55:22.485Z,25.27
2017-10-17T06:57:52.330Z,24.57
2017-10-17T07:00:22.205Z,23.50
2017-10-17T07:02:52.045Z,23.63
2017-10-17T07:05:22.298Z,21.37
2017-10-17T07:07:52.141Z,22.50
2017-10-17T07:10:22.365Z,22.03
2017-10-17T07:12:52.199Z,22.80
2017-10-17T07:15:22.385Z,23.00
2017-10-17T07:17:52.210Z,23.07
2017-10-17T07:20:22.429Z,21.70
2017-10-17T07:22:52.247Z,22.50
2017-10-17T07:25:22.432Z,20.20
2017-10-17T07:27:52.245Z,18.80
2017-10-17T07:30:22.580Z,20.67
2017-10-17T07:32:52.399Z,17.87
2017-10-17T07:35:22.309Z,17.80
2017-10-17T07:37:52.109Z,16.67
2017-10-17T07:40:22.291Z,16.63
2017-10-17T07:42:52.860Z,16.10
2017-10-17T07:45:23.374Z,16.80
2017-10-17T07:47:53.921Z,17.47
2017-10-17T07:50:24.110Z,16.70
2017-10-17T07:52:53.947Z,16.70
2017-10-17T07:55:23.826Z,16.57
2017-10-17T07:57:53.976Z,17.70
2017-10-17T08:00:23.759Z,18.30
2017-10-17T08:02:53.728Z,15.93
2017-10-17T08:05:23.555Z,16.60
2017-10-17T08:07:53.418Z,15.30
2017-10-17T08:10:23.302Z,15.30
2017-10-17T08:12:53.157Z,14.83
2017-10-17T08:15:23.003Z,16.40
2017-10-17T08:17:52.837Z,13.20
2017-10-17T08:20:23.113Z,14.10
2017-10-17T08:22:52.984Z,12.10
2017-10-17T08:25:22.790Z,13.80
2017-10-17T08:27:53.420Z,12.33
2017-10-17T08:30:23.237Z,12.70
2017-10-17T08:32:53.120Z,13.00
2017-10-17T08:35:22.946Z,12.67
2017-10-17T08:37:52.786Z,13.80
2017-10-17T08:40:22.645Z,11.13
2017-10-17T08:42:52.454Z,12.73
2017-10-17T08:45:22.278Z,11.80
2017-10-17T08:47:52.152Z,10.53
2017-10-17T08:50:21.996Z,10.60
2017-10-17T08:52:51.838Z,11.60
2017-10-17T08:55:21.680Z,11.97
2017-10-17T08:57:51.540Z,11.17
2017-10-17T09:00:21.372Z,11.53
2017-10-17T09:02:51.484Z,10.80
2017-10-17T09:05:21.408Z,11.20
2017-10-17T09:07:51.481Z,10.63
2017-10-17T09:10:21.351Z,12.70
2017-10-17T09:12:59.242Z,9.83
2017-10-17T09:15:29.043Z,10.20
2017-10-17T09:17:59.240Z,11.03
2017-10-17T09:20:29.042Z,9.20
2017-10-17T09:22:58.882Z,10.17
2017-10-17T09:25:29.045Z,9.70
2017-10-17T09:27:58.906Z,10.10
2017-10-17T09:30:28.764Z,10.30
2017-10-17T09:32:58.621Z,10.60
2017-10-17T09:35:28.434Z,10.07
2017-10-17T09:37:58.541Z,11.00
2017-10-17T09:40:28.346Z,11.97
2017-10-17T09:42:58.515Z,10.70
2017-10-17T09:45:28.404Z,10.90
2017-10-17T09:47:58.528Z,9.90
2017-10-17T09:50:28.331Z,9.60
2017-10-17T09:52:58.490Z,10.00
2017-10-17T09:55:29.465Z,9.57
2017-10-17T09:57:59.307Z,9.30
2017-10-17T10:00:29.142Z,10.20
2017-10-17T10:02:59.275Z,10.03
2017-10-17T10:05:29.086Z,10.00
2017-10-17T10:07:59.201Z,9.93
2017-10-17T10:10:29.001Z,10.33
2017-10-17T10:12:58.833Z,18.57
2017-10-17T10:15:28.671Z,10.27
2017-10-17T10:17:58.469Z,9.00
2017-10-17T10:20:28.610Z,9.57
2017-10-17T10:22:58.422Z,10.10
2017-10-17T10:25:28.255Z,10.67
2017-10-17T10:27:58.065Z,10.77
2017-10-17T10:30:27.902Z,8.50
2017-10-17T10:32:57.742Z,9.37
2017-10-17T10:35:27.568Z,9.00
2017-10-17T10:37:57.778Z,9.77
2017-10-17T10:40:28.513Z,9.67
2017-10-17T10:42:58.317Z,10.33
2017-10-17T10:45:28.137Z,9.17
2017-10-17T10:47:58.272Z,10.20
2017-10-17T10:50:28.064Z,8.53
2017-10-17T10:52:58.145Z,9.60
2017-10-17T10:55:28.087Z,8.90
2017-10-17T10:57:58.152Z,9.00
2017-10-17T11:00:28.311Z,10.67
2017-10-17T11:02:58.446Z,10.17
2017-10-17T11:05:28.271Z,8.70
2017-10-17T11:07:58.377Z,9.77
2017-10-17T11:10:28.191Z,11.70
2017-10-17T11:12:58.000Z,9.10
2017-10-17T11:15:27.857Z,9.37
2017-10-17T11:17:57.711Z,10.40
2017-10-17T11:20:27.892Z,9.20
2017-10-17T11:22:57.732Z,9.93
2017-10-17T11:25:27.545Z,10.10
2017-10-17T11:27:57.673Z,10.30
2017-10-17T11:30:27.496Z,10.10
2017-10-17T11:32:57.619Z,8.93
2017-10-17T11:35:27.506Z,10.10
2017-10-17T11:37:57.666Z,9.97
2017-10-17T11:40:33.333Z,9.40
2017-10-17T11:43:19.493Z,8.33
2017-10-17T11:45:49.423Z,10.60
2017-10-17T11:48:19.265Z,9.10
2017-10-17T11:50:49.121Z,9.43
2017-10-17T11:53:18.983Z,9.53
2017-10-17T11:55:49.662Z,9.63
2017-10-17T11:58:19.509Z,9.40
2017-10-17T12:00:50.057Z,9.73
2017-10-17T12:03:20.154Z,9.43
2017-10-17T12:05:50.496Z,10.10
2017-10-17T12:08:20.883Z,10.33
2017-10-17T12:10:50.715Z,8.13
2017-10-17T12:13:21.415Z,9.47
2017-10-17T12:15:51.219Z,8.73
2017-10-17T12:18:21.035Z,9.30
2017-10-17T12:20:50.873Z,9.83
2017-10-17T12:23:20.701Z,8.70
2017-10-17T12:25:50.592Z,9.20
2017-10-17T12:28:20.373Z,9.47
2017-10-17T12:30:50.494Z,10.60
2017-10-17T12:33:20.291Z,10.40
2017-10-17T12:35:50.137Z,10.33
2017-10-17T12:38:19.966Z,9.83
2017-10-17T12:40:49.826Z,10.50
2017-10-17T12:43:19.701Z,10.30
2017-10-17T12:48:33.585Z,10.10
2017-10-17T12:51:03.403Z,9.97
2017-10-17T12:53:33.486Z,9.40
2017-10-17T12:56:03.291Z,9.33
2017-10-17T12:58:33.391Z,8.37
2017-10-17T13:01:03.225Z,8.70
2017-10-17T13:03:33.801Z,10.10
2017-10-17T13:06:03.638Z,9.47
2017-10-17T13:08:33.808Z,9.57
2017-10-17T13:11:03.713Z,10.87
2017-10-17T13:13:33.546Z,9.23
2017-10-17T13:16:03.358Z,10.40
2017-10-17T13:18:33.222Z,9.60
2017-10-17T13:21:03.916Z,11.20
2017-10-17T13:23:34.143Z,10.07
2017-10-17T13:26:03.981Z,9.30
2017-10-17T13:28:33.816Z,9.73
2017-10-17T13:31:03.620Z,11.00
2017-10-17T13:33:33.438Z,9.67
2017-10-17T13:36:04.208Z,9.07
2017-10-17T13:38:34.019Z,9.10
2017-10-17T13:41:03.887Z,10.23
2017-10-17T13:43:33.734Z,10.10
2017-10-17T13:46:03.545Z,10.93
2017-10-17T13:48:33.406Z,9.33
2017-10-17T13:51:04.050Z,10.77
2017-10-17T13:53:33.883Z,9.30
2017-10-17T13:56:03.733Z,11.40
2017-10-17T13:58:33.584Z,9.60
2017-10-17T14:01:03.467Z,10.40
2017-10-17T14:03:33.337Z,10.03
2017-10-17T14:06:03.182Z,9.63
2017-10-17T14:08:32.988Z,9.80
2017-10-17T14:11:04.689Z,9.70
2017-10-17T14:13:34.497Z,10.63
2017-10-17T14:16:04.341Z,10.00
2017-10-17T14:18:34.162Z,10.77
2017-10-17T14:21:03.996Z,10.80
2017-10-17T14:23:33.815Z,10.07
2017-10-17T14:26:03.777Z,10.73
2017-10-17T14:28:33.635Z,11.03
2017-10-17T14:31:03.436Z,9.40
2017-10-17T14:33:33.246Z,10.57
2017-10-17T14:42:52.874Z,10.60
2017-10-17T14:45:22.746Z,11.20
2017-10-17T14:47:52.597Z,11.60
2017-10-17T14:50:22.471Z,12.10
2017-10-17T14:52:52.333Z,11.57
2017-10-17T14:55:22.152Z,12.70
2017-10-17T14:57:51.981Z,10.20
2017-10-17T15:00:21.827Z,12.40
2017-10-17T15:02:51.678Z,12.23
2017-10-17T15:05:21.461Z,13.70
2017-10-17T15:07:51.297Z,12.10
2017-10-17T15:10:21.110Z,12.87
2017-10-17T15:12:50.926Z,12.30
2017-10-17T15:15:20.807Z,13.10
2017-10-17T15:17:50.615Z,13.00
2017-10-17T15:20:20.453Z,14.77
2017-10-17T15:22:50.278Z,14.40
2017-10-17T15:25:20.084Z,12.80
2017-10-17T15:27:49.969Z,14.10
2017-10-17T15:30:19.792Z,14.73
2017-10-17T15:32:49.633Z,13.53
2017-10-17T15:35:19.451Z,13.90
2017-10-17T15:37:49.286Z,13.00
2017-10-17T15:40:19.115Z,13.90
2017-10-17T15:42:48.930Z,14.80
2017-10-17T15:45:18.740Z,15.40
2017-10-17T15:47:48.570Z,14.90
2017-10-17T15:50:18.401Z,15.17
2017-10-17T15:52:48.234Z,15.93
2017-10-17T15:55:18.062Z,16.13
2017-10-17T15:57:48.505Z,14.60
2017-10-17T16:00:18.309Z,17.43
2017-10-17T16:02:48.135Z,16.77
2017-10-17T16:05:17.945Z,16.90
2017-10-17T16:07:47.782Z,16.83
2017-10-17T16:10:17.617Z,17.93
2017-10-17T16:12:47.413Z,18.73
2017-10-17T16:15:17.227Z,21.20
2017-10-17T16:17:47.032Z,21.73
2017-10-17T16:20:16.856Z,21.70
2017-10-17T16:22:46.683Z,19.03
2017-10-17T16:25:16.504Z,20.07
2017-10-17T16:27:46.324Z,19.03
2017-10-17T16:30:16.198Z,20.33
2017-10-17T16:32:45.998Z,20.50
2017-10-17T16:35:15.865Z,20.80
2017-10-17T16:37:45.677Z,18.83
2017-10-17T16:40:15.508Z,21.30
2017-10-17T16:42:45.293Z,21.37
2017-10-17T16:45:15.121Z,20.93
2017-10-17T16:47:44.983Z,22.23
2017-10-17T16:50:14.825Z,22.27
2017-10-17T16:52:44.675Z,19.73
2017-10-17T16:55:14.762Z,37.40
2017-10-17T16:57:44.585Z,22.30
2017-10-17T17:00:14.407Z,21.40
2017-10-17T17:02:44.257Z,19.47
2017-10-17T17:05:14.054Z,19.57
2017-10-17T17:07:43.888Z,20.57
2017-10-17T17:10:13.708Z,18.53
2017-10-17T17:12:43.522Z,21.60
2017-10-17T17:15:13.339Z,22.30
2017-10-17T17:17:43.150Z,20.90
2017-10-17T17:20:12.974Z,20.90
2017-10-17T17:22:42.804Z,21.63
2017-10-17T17:25:12.599Z,22.33
2017-10-17T17:27:42.611Z,22.53
2017-10-17T17:30:12.481Z,23.97
2017-10-17T17:32:42.599Z,22.40
2017-10-17T17:35:12.406Z,22.60
2017-10-17T17:37:43.166Z,22.57
2017-10-17T17:40:13.065Z,24.70
2017-10-17T17:42:43.206Z,21.53
2017-10-17T17:45:13.018Z,21.50
2017-10-17T17:47:43.097Z,21.00
2017-10-17T17:50:12.910Z,22.20
2017-10-17T17:52:42.774Z,22.90
2017-10-17T17:55:12.619Z,20.43
2017-10-17T17:57:42.429Z,23.57
2017-10-17T18:00:12.247Z,22.17
2017-10-17T18:02:42.081Z,26.47
2017-10-17T18:05:11.892Z,24.73
2017-10-17T18:07:41.733Z,25.07
2017-10-17T18:10:11.547Z,25.90
2017-10-17T18:12:41.344Z,25.13
2017-10-17T18:15:11.169Z,25.03
2017-10-17T18:17:41.001Z,24.83
2017-10-17T18:20:10.814Z,25.70
2017-10-17T18:22:40.626Z,24.23
2017-10-17T18:25:10.802Z,26.57
2017-10-17T18:27:40.602Z,24.60
2017-10-17T18:30:10.733Z,26.10
2017-10-17T18:32:40.561Z,27.23
2017-10-17T18:35:10.801Z,27.40
2017-10-17T18:37:40.622Z,26.33
2017-10-17T18:40:10.811Z,26.30
2017-10-17T18:42:40.635Z,28.33
2017-10-17T18:45:10.755Z,27.70
2017-10-17T18:47:41.296Z,28.50
2017-10-17T18:50:11.513Z,27.37
2017-10-17T18:52:41.334Z,24.10
2017-10-17T18:55:11.441Z,25.47
2017-10-17T18:57:41.234Z,22.60
2017-10-17T19:00:12.727Z,23.30
2017-10-17T19:02:42.572Z,24.80
2017-10-17T19:05:12.769Z,27.33
2017-10-17T19:07:43.347Z,28.67
2017-10-17T19:10:13.533Z,27.53
2017-10-17T19:12:43.355Z,27.67
2017-10-17T19:15:13.467Z,25.90
2017-10-17T19:17:43.297Z,28.17
2017-10-17T19:20:13.414Z,27.67
2017-10-17T19:22:43.243Z,28.47
2017-10-17T19:25:13.370Z,26.73
2017-10-17T19:27:43.192Z,28.70
2017-10-17T19:30:13.492Z,26.40
2017-10-17T19:32:43.276Z,27.13
2017-10-17T19:35:13.411Z,26.60
2017-10-17T19:37:43.218Z,26.53
2017-10-17T19:40:13.392Z,33.80
2017-10-17T19:42:43.244Z,32.93
2017-10-17T19:45:13.402Z,29.73
2017-10-17T19:47:43.213Z,29.00
2017-10-17T19:50:13.360Z,28.53
2017-10-17T19:52:43.157Z,29.97
2017-10-17T19:55:13.286Z,30.20
2017-10-17T19:57:43.125Z,32.10
2017-10-17T20:00:13.291Z,29.90
2017-10-17T20:02:43.124Z,30.30
2017-10-17T20:05:13.195Z,31.00
2017-10-17T20:07:43.664Z,32.70
2017-10-17T20:10:13.801Z,35.57
2017-10-17T20:12:43.624Z,36.57
2017-10-17T20:15:13.789Z,33.03
2017-10-17T20:17:43.626Z,36.77
2017-10-17T20:20:13.812Z,35.10
2017-10-17T20:22:43.622Z,36.13
2017-10-17T20:25:13.709Z,35.67
2017-10-17T20:27:43.552Z,32.83
2017-10-17T20:30:13.722Z,34.40
2017-10-17T20:32:43.611Z,35.20
2017-10-17T20:35:13.740Z,33.80
2017-10-17T20:37:43.565Z,35.43
2017-10-17T20:40:13.670Z,32.87
2017-10-17T20:42:43.853Z,36.10
2017-10-17T20:45:14.042Z,34.50
2017-10-17T20:47:43.863Z,34.10
2017-10-17T20:50:13.686Z,32.80
2017-10-17T20:52:43.537Z,33.77
2017-10-17T20:55:13.402Z,34.73
2017-10-17T20:57:43.234Z,30.80
2017-10-17T21:00:13.113Z,36.33
2017-10-17T21:02:42.950Z,36.23
2017-10-17T21:05:12.773Z,34.77
2017-10-17T21:07:42.605Z,35.60
2017-10-17T21:10:12.430Z,33.43
2017-10-17T21:12:42.267Z,35.40
2017-10-17T21:15:12.085Z,37.07
2017-10-17T21:17:41.906Z,35.97
2017-10-17T21:20:11.726Z,36.00
2017-10-17T21:22:41.591Z,34.73
2017-10-17T21:25:11.373Z,35.20
2017-10-17T21:27:41.213Z,36.87
2017-10-17T21:30:11.254Z,36.43
2017-10-17T21:32:41.121Z,35.97
2017-10-17T21:35:10.986Z,32.20
2017-10-17T21:37:40.797Z,36.40
2017-10-17T21:40:10.614Z,34.50
2017-10-17T21:42:40.478Z,34.90
2017-10-17T21:45:10.294Z,33.43
2017-10-17T21:47:40.424Z,36.63
2017-10-17T21:50:10.241Z,34.47
2017-10-17T21:52:40.404Z,31.20
2017-10-17T21:55:10.217Z,33.23
2017-10-17T21:57:40.348Z,36.60
2017-10-17T22:00:10.415Z,34.83
2017-10-17T22:02:40.520Z,38.03
2017-10-17T22:05:10.350Z,36.37
2017-10-17T22:07:40.540Z,37.30
2017-10-17T22:10:10.369Z,35.30
2017-10-17T22:12:40.553Z,37.20
2017-10-17T22:15:10.631Z,37.97
2017-10-17T22:17:40.734Z,36.20
2017-10-17T22:20:10.546Z,35.90
2017-10-17T22:22:40.706Z,34.80
2017-10-17T22:25:10.970Z,36.80
2017-10-17T22:27:41.099Z,37.80
2017-10-17T22:30:10.939Z,35.90
2017-10-17T22:32:40.782Z,37.93
2017-10-17T22:35:11.339Z,37.10
2017-10-17T22:37:42.018Z,36.47
2017-10-17T22:40:11.843Z,38.90
2017-10-17T22:42:41.636Z,37.97
2017-10-17T22:45:11.454Z,37.97
2017-10-17T22:47:41.280Z,41.33
2017-10-17T22:50:11.124Z,38.27
2017-10-17T22:52:40.927Z,38.40
2017-10-17T22:55:11.281Z,39.03
2017-10-17T22:57:41.672Z,39.20
2017-10-17T23:00:11.494Z,36.57
2017-10-17T23:02:41.300Z,36.47
2017-10-17T23:05:11.142Z,37.60
2017-10-17T23:07:40.965Z,38.27
2017-10-17T23:10:11.696Z,36.73
2017-10-17T23:12:41.509Z,38.07
2017-10-17T23:15:11.343Z,38.70
2017-10-17T23:17:47.129Z,38.87
2017-10-17T23:20:22.788Z,39.40
2017-10-17T23:22:52.615Z,41.30
2017-10-17T23:25:23.407Z,41.80
2017-10-17T23:27:53.216Z,37.07
2017-10-17T23:30:23.401Z,37.33
2017-10-17T23:32:53.214Z,38.00
2017-10-17T23:35:23.977Z,39.00
2017-10-17T23:44:42.562Z,36.77
2017-10-17T23:47:12.406Z,34.20
2017-10-17T23:49:42.248Z,35.13
2017-10-17T23:52:12.085Z,37.33
2017-10-17T23:54:41.908Z,37.37
2017-10-17T23:57:11.738Z,37.10
2017-10-17T23:59:41.552Z,34.10
